RPVP

Puerto Princesa Airport

Puerto Princesa City, Philippines
TAF RPVP 210500Z 2106/2206 18006KT 9999 FEW019 SCT250 TEMPO 2106/2112 20012KT FEW017CB SCT080
Issued Valid From Valid To
Aug-21 @ 05:00 UTC
(13 hours ago)
Aug-21 @ 06:00 UTC
(12 hours ago)
Aug-22 @ 06:00 UTC
(in 12 hours)
Aug-21 @ 06:00 to Aug-22 @ 06:00
TAF RPVP 210500Z 2106/2206 18006KT 9999 FEW019 SCT250
Wind Visibility Clouds
180° at 6 knots 10,000+ meters
  • Few at 1,900' AGL
  • Scattered at 25,000' AGL
Expired Click to View Aug-21 @ 06:00 to Aug-21 @ 12:00
TEMPO 2106/2112 20012KT FEW017CB SCT080
Wind Clouds
200° at 12 knots
  • Few at 1,700' AGL
  • Scattered at 8,000' AGL
TAF RPVP 210500Z 2106/2206 18006KT 9999 FEW019 SCT250 TEMPO 2106/2112 20012KT FEW017CB SCT080
Issued Aug-21 @ 05:00 UTC
(13 hours ago)
Valid From Aug-21 @ 06:00 UTC
(12 hours ago)
Valid To Aug-22 @ 06:00 UTC
(in 12 hours)
Aug-21 @ 06:00 - Aug-22 @ 06:00
Wind Visibility
180° at 6 knots 10,000+ meters
Clouds
  • Few at 1,900' AGL
  • Scattered at 25,000' AGL
Aug-21 @ 06:00 - Aug-21 @ 12:00
Wind
200° at 12 knots
Clouds
  • Few at 1,700' AGL
  • Scattered at 8,000' AGL